sensor_id;sensor_type;location;lat;lon;timestamp;P1;durP1;ratioP1;P2;durP2;ratioP2
46731;SDS011;32477;51.474;5.696;2023-02-19T00:01:19;47.50;;;23.08;;
46731;SDS011;32477;51.474;5.696;2023-02-19T00:03:50;49.00;;;20.88;;
46731;SDS011;32477;51.474;5.696;2023-02-19T00:06:18;49.58;;;22.77;;
46731;SDS011;32477;51.474;5.696;2023-02-19T00:08:45;46.83;;;23.30;;
46731;SDS011;32477;51.474;5.696;2023-02-19T00:11:12;51.75;;;24.15;;
46731;SDS011;32477;51.474;5.696;2023-02-19T00:13:43;48.50;;;23.05;;
46731;SDS011;32477;51.474;5.696;2023-02-19T00:16:12;50.03;;;22.90;;
46731;SDS011;32477;51.474;5.696;2023-02-19T00:18:39;47.80;;;23.27;;
46731;SDS011;32477;51.474;5.696;2023-02-19T00:21:06;48.72;;;22.75;;
46731;SDS011;32477;51.474;5.696;2023-02-19T00:23:31;44.63;;;22.60;;
46731;SDS011;32477;51.474;5.696;2023-02-19T00:26:01;43.92;;;21.15;;
46731;SDS011;32477;51.474;5.696;2023-02-19T00:28:28;47.35;;;20.45;;
46731;SDS011;32477;51.474;5.696;2023-02-19T00:30:53;49.72;;;21.75;;
46731;SDS011;32477;51.474;5.696;2023-02-19T00:33:19;46.45;;;20.52;;
46731;SDS011;32477;51.474;5.696;2023-02-19T00:35:45;54.40;;;20.88;;
46731;SDS011;32477;51.474;5.696;2023-02-19T00:38:10;36.92;;;18.42;;
46731;SDS011;32477;51.474;5.696;2023-02-19T00:40:36;37.92;;;16.95;;
46731;SDS011;32477;51.474;5.696;2023-02-19T00:43:02;40.05;;;19.05;;
46731;SDS011;32477;51.474;5.696;2023-02-19T00:45:28;42.75;;;19.25;;
46731;SDS011;32477;51.474;5.696;2023-02-19T00:47:54;46.03;;;17.55;;
46731;SDS011;32477;51.474;5.696;2023-02-19T00:50:20;33.45;;;17.05;;
46731;SDS011;32477;51.474;5.696;2023-02-19T00:52:46;51.70;;;17.48;;
46731;SDS011;32477;51.474;5.696;2023-02-19T00:55:11;37.20;;;17.58;;
46731;SDS011;32477;51.474;5.696;2023-02-19T00:57:37;35.40;;;16.60;;
46731;SDS011;32477;51.474;5.696;2023-02-19T01:00:03;36.60;;;15.50;;
46731;SDS011;32477;51.474;5.696;2023-02-19T01:02:30;43.03;;;16.20;;
46731;SDS011;32477;51.474;5.696;2023-02-19T01:04:56;39.33;;;15.88;;
46731;SDS011;32477;51.474;5.696;2023-02-19T01:07:21;37.05;;;15.25;;
46731;SDS011;32477;51.474;5.696;2023-02-19T01:09:48;32.90;;;13.93;;
46731;SDS011;32477;51.474;5.696;2023-02-19T01:12:13;33.42;;;13.98;;
46731;SDS011;32477;51.474;5.696;2023-02-19T01:14:39;31.70;;;13.85;;
46731;SDS011;32477;51.474;5.696;2023-02-19T01:17:05;29.67;;;13.00;;
46731;SDS011;32477;51.474;5.696;2023-02-19T01:19:30;34.58;;;11.35;;
46731;SDS011;32477;51.474;5.696;2023-02-19T01:21:56;28.90;;;11.73;;
46731;SDS011;32477;51.474;5.696;2023-02-19T01:24:22;31.17;;;12.23;;
46731;SDS011;32477;51.474;5.696;2023-02-19T01:26:47;26.33;;;11.00;;
46731;SDS011;32477;51.474;5.696;2023-02-19T01:29:13;29.30;;;11.43;;
46731;SDS011;32477;51.474;5.696;2023-02-19T01:31:39;23.85;;;10.60;;
46731;SDS011;32477;51.474;5.696;2023-02-19T01:34:06;24.63;;;11.07;;
46731;SDS011;32477;51.474;5.696;2023-02-19T01:36:34;29.55;;;9.82;;
46731;SDS011;32477;51.474;5.696;2023-02-19T01:39:02;27.70;;;9.85;;
46731;SDS011;32477;51.474;5.696;2023-02-19T01:41:29;21.25;;;8.77;;
46731;SDS011;32477;51.474;5.696;2023-02-19T01:46:28;29.33;;;9.65;;
46731;SDS011;32477;51.474;5.696;2023-02-19T01:49:31;25.35;;;8.07;;
46731;SDS011;32477;51.474;5.696;2023-02-19T01:54:40;26.92;;;7.90;;
46731;SDS011;32477;51.474;5.696;2023-02-19T01:57:22;24.90;;;7.63;;
46731;SDS011;32477;51.474;5.696;2023-02-19T01:59:52;21.20;;;7.47;;
46731;SDS011;32477;51.474;5.696;2023-02-19T02:02:22;20.15;;;7.95;;
46731;SDS011;32477;51.474;5.696;2023-02-19T02:04:52;24.90;;;8.70;;
46731;SDS011;32477;51.474;5.696;2023-02-19T02:07:22;19.90;;;7.47;;
46731;SDS011;32477;51.474;5.696;2023-02-19T02:10:06;24.30;;;7.93;;
46731;SDS011;32477;51.474;5.696;2023-02-19T02:12:44;28.58;;;8.52;;
46731;SDS011;32477;51.474;5.696;2023-02-19T02:15:11;23.80;;;7.47;;
46731;SDS011;32477;51.474;5.696;2023-02-19T02:17:40;24.35;;;7.70;;
46731;SDS011;32477;51.474;5.696;2023-02-19T02:26:24;19.42;;;6.88;;
46731;SDS011;32477;51.474;5.696;2023-02-19T02:32:10;26.50;;;7.88;;
46731;SDS011;32477;51.474;5.696;2023-02-19T02:34:51;18.65;;;6.85;;
46731;SDS011;32477;51.474;5.696;2023-02-19T02:37:22;26.98;;;6.80;;
46731;SDS011;32477;51.474;5.696;2023-02-19T02:39:50;18.58;;;6.53;;
46731;SDS011;32477;51.474;5.696;2023-02-19T02:42:17;17.75;;;6.13;;
46731;SDS011;32477;51.474;5.696;2023-02-19T02:44:56;24.92;;;6.80;;
46731;SDS011;32477;51.474;5.696;2023-02-19T02:47:42;20.15;;;6.15;;
46731;SDS011;32477;51.474;5.696;2023-02-19T02:50:19;14.70;;;6.13;;
46731;SDS011;32477;51.474;5.696;2023-02-19T02:52:55;17.60;;;6.05;;
46731;SDS011;32477;51.474;5.696;2023-02-19T02:55:42;22.67;;;6.00;;
46731;SDS011;32477;51.474;5.696;2023-02-19T02:58:10;21.00;;;6.57;;
46731;SDS011;32477;51.474;5.696;2023-02-19T03:00:38;22.55;;;7.63;;
46731;SDS011;32477;51.474;5.696;2023-02-19T03:03:26;22.25;;;6.88;;
46731;SDS011;32477;51.474;5.696;2023-02-19T03:05:56;26.35;;;7.55;;
46731;SDS011;32477;51.474;5.696;2023-02-19T03:08:28;20.27;;;5.97;;
46731;SDS011;32477;51.474;5.696;2023-02-19T03:11:07;22.88;;;6.03;;
46731;SDS011;32477;51.474;5.696;2023-02-19T03:13:57;21.13;;;6.38;;
46731;SDS011;32477;51.474;5.696;2023-02-19T03:19:34;24.50;;;5.95;;
46731;SDS011;32477;51.474;5.696;2023-02-19T03:22:19;28.15;;;5.88;;
46731;SDS011;32477;51.474;5.696;2023-02-19T03:24:53;21.50;;;5.55;;
46731;SDS011;32477;51.474;5.696;2023-02-19T03:27:46;13.52;;;5.20;;
46731;SDS011;32477;51.474;5.696;2023-02-19T03:30:15;25.35;;;6.20;;
46731;SDS011;32477;51.474;5.696;2023-02-19T03:35:18;18.70;;;5.22;;
46731;SDS011;32477;51.474;5.696;2023-02-19T03:37:49;20.52;;;5.35;;
46731;SDS011;32477;51.474;5.696;2023-02-19T03:40:56;20.63;;;5.05;;
46731;SDS011;32477;51.474;5.696;2023-02-19T03:43:35;27.17;;;5.57;;
46731;SDS011;32477;51.474;5.696;2023-02-19T03:46:13;23.48;;;5.50;;
46731;SDS011;32477;51.474;5.696;2023-02-19T03:48:48;23.30;;;5.72;;
46731;SDS011;32477;51.474;5.696;2023-02-19T03:53:56;26.80;;;5.90;;
46731;SDS011;32477;51.474;5.696;2023-02-19T03:56:49;32.90;;;5.72;;
46731;SDS011;32477;51.474;5.696;2023-02-19T03:59:38;23.15;;;6.63;;
46731;SDS011;32477;51.474;5.696;2023-02-19T04:02:12;21.55;;;4.90;;
46731;SDS011;32477;51.474;5.696;2023-02-19T04:04:44;18.63;;;5.90;;
46731;SDS011;32477;51.474;5.696;2023-02-19T04:07:15;23.90;;;5.53;;
46731;SDS011;32477;51.474;5.696;2023-02-19T04:09:42;16.50;;;4.55;;
46731;SDS011;32477;51.474;5.696;2023-02-19T04:12:10;16.95;;;4.30;;
46731;SDS011;32477;51.474;5.696;2023-02-19T04:14:40;26.40;;;4.82;;
46731;SDS011;32477;51.474;5.696;2023-02-19T04:17:16;16.08;;;4.72;;
46731;SDS011;32477;51.474;5.696;2023-02-19T04:19:45;18.40;;;4.13;;
46731;SDS011;32477;51.474;5.696;2023-02-19T04:22:14;23.27;;;4.47;;
46731;SDS011;32477;51.474;5.696;2023-02-19T04:24:47;26.30;;;3.50;;
46731;SDS011;32477;51.474;5.696;2023-02-19T04:27:14;24.05;;;4.53;;
46731;SDS011;32477;51.474;5.696;2023-02-19T04:29:40;17.75;;;4.00;;
46731;SDS011;32477;51.474;5.696;2023-02-19T04:32:06;18.70;;;4.25;;
46731;SDS011;32477;51.474;5.696;2023-02-19T04:34:34;12.50;;;4.10;;
46731;SDS011;32477;51.474;5.696;2023-02-19T04:36:59;19.15;;;3.75;;
46731;SDS011;32477;51.474;5.696;2023-02-19T04:39:25;21.25;;;4.07;;
46731;SDS011;32477;51.474;5.696;2023-02-19T04:41:51;25.40;;;4.72;;
46731;SDS011;32477;51.474;5.696;2023-02-19T04:44:16;24.33;;;4.15;;
46731;SDS011;32477;51.474;5.696;2023-02-19T04:46:42;20.33;;;4.72;;
46731;SDS011;32477;51.474;5.696;2023-02-19T04:49:08;13.63;;;3.28;;
46731;SDS011;32477;51.474;5.696;2023-02-19T04:51:34;16.65;;;3.75;;
46731;SDS011;32477;51.474;5.696;2023-02-19T04:53:59;24.05;;;3.72;;
46731;SDS011;32477;51.474;5.696;2023-02-19T04:56:25;22.05;;;4.47;;
46731;SDS011;32477;51.474;5.696;2023-02-19T04:58:51;29.48;;;5.07;;
46731;SDS011;32477;51.474;5.696;2023-02-19T05:01:16;23.40;;;4.25;;
46731;SDS011;32477;51.474;5.696;2023-02-19T05:03:42;21.02;;;4.88;;
46731;SDS011;32477;51.474;5.696;2023-02-19T05:06:09;19.95;;;4.20;;
46731;SDS011;32477;51.474;5.696;2023-02-19T05:08:37;23.45;;;4.30;;
46731;SDS011;32477;51.474;5.696;2023-02-19T05:11:03;25.08;;;4.70;;
46731;SDS011;32477;51.474;5.696;2023-02-19T05:13:30;23.05;;;3.47;;
46731;SDS011;32477;51.474;5.696;2023-02-19T05:15:57;24.25;;;3.67;;
46731;SDS011;32477;51.474;5.696;2023-02-19T05:18:38;18.17;;;3.97;;
46731;SDS011;32477;51.474;5.696;2023-02-19T05:21:04;24.02;;;4.45;;
46731;SDS011;32477;51.474;5.696;2023-02-19T05:23:30;21.33;;;3.88;;
46731;SDS011;32477;51.474;5.696;2023-02-19T05:25:56;23.83;;;3.88;;
46731;SDS011;32477;51.474;5.696;2023-02-19T05:28:21;12.65;;;3.42;;
46731;SDS011;32477;51.474;5.696;2023-02-19T05:30:52;21.83;;;4.00;;
46731;SDS011;32477;51.474;5.696;2023-02-19T05:33:22;24.92;;;3.92;;
46731;SDS011;32477;51.474;5.696;2023-02-19T05:35:52;19.33;;;4.00;;
46731;SDS011;32477;51.474;5.696;2023-02-19T05:38:19;21.60;;;4.20;;
46731;SDS011;32477;51.474;5.696;2023-02-19T05:40:46;20.35;;;3.75;;
46731;SDS011;32477;51.474;5.696;2023-02-19T05:43:12;31.67;;;4.57;;
46731;SDS011;32477;51.474;5.696;2023-02-19T05:45:38;26.02;;;4.47;;
46731;SDS011;32477;51.474;5.696;2023-02-19T05:48:04;14.82;;;4.15;;
46731;SDS011;32477;51.474;5.696;2023-02-19T05:50:31;16.90;;;4.07;;
46731;SDS011;32477;51.474;5.696;2023-02-19T05:53:01;22.35;;;4.07;;
46731;SDS011;32477;51.474;5.696;2023-02-19T05:55:29;28.85;;;4.45;;
46731;SDS011;32477;51.474;5.696;2023-02-19T05:57:58;17.02;;;4.20;;
46731;SDS011;32477;51.474;5.696;2023-02-19T06:00:25;19.73;;;4.60;;
46731;SDS011;32477;51.474;5.696;2023-02-19T06:02:51;21.25;;;4.25;;
46731;SDS011;32477;51.474;5.696;2023-02-19T06:05:18;16.45;;;4.30;;
46731;SDS011;32477;51.474;5.696;2023-02-19T06:07:44;24.85;;;4.47;;
46731;SDS011;32477;51.474;5.696;2023-02-19T06:10:10;24.35;;;4.25;;
46731;SDS011;32477;51.474;5.696;2023-02-19T06:12:36;19.00;;;4.85;;
46731;SDS011;32477;51.474;5.696;2023-02-19T06:15:03;16.23;;;4.90;;
46731;SDS011;32477;51.474;5.696;2023-02-19T06:17:30;18.60;;;5.18;;
46731;SDS011;32477;51.474;5.696;2023-02-19T06:19:57;23.38;;;5.07;;
46731;SDS011;32477;51.474;5.696;2023-02-19T06:22:22;18.10;;;4.93;;
46731;SDS011;32477;51.474;5.696;2023-02-19T06:24:48;24.60;;;5.53;;
46731;SDS011;32477;51.474;5.696;2023-02-19T06:27:14;20.23;;;4.57;;
46731;SDS011;32477;51.474;5.696;2023-02-19T06:29:39;22.48;;;3.85;;
46731;SDS011;32477;51.474;5.696;2023-02-19T06:32:05;22.33;;;4.68;;
46731;SDS011;32477;51.474;5.696;2023-02-19T06:34:31;23.25;;;3.90;;
46731;SDS011;32477;51.474;5.696;2023-02-19T06:36:57;18.58;;;3.92;;
46731;SDS011;32477;51.474;5.696;2023-02-19T06:39:24;32.35;;;4.03;;
46731;SDS011;32477;51.474;5.696;2023-02-19T06:41:49;31.20;;;4.82;;
46731;SDS011;32477;51.474;5.696;2023-02-19T06:44:15;22.27;;;4.50;;
46731;SDS011;32477;51.474;5.696;2023-02-19T06:46:41;25.15;;;4.28;;
46731;SDS011;32477;51.474;5.696;2023-02-19T06:49:07;30.25;;;5.65;;
46731;SDS011;32477;51.474;5.696;2023-02-19T06:51:32;19.40;;;4.28;;
46731;SDS011;32477;51.474;5.696;2023-02-19T06:53:58;27.95;;;5.88;;
46731;SDS011;32477;51.474;5.696;2023-02-19T06:58:57;33.22;;;5.13;;
46731;SDS011;32477;51.474;5.696;2023-02-19T07:01:24;35.00;;;4.90;;
46731;SDS011;32477;51.474;5.696;2023-02-19T07:03:50;34.00;;;4.78;;
46731;SDS011;32477;51.474;5.696;2023-02-19T07:06:16;31.20;;;5.05;;
46731;SDS011;32477;51.474;5.696;2023-02-19T07:08:43;33.35;;;5.25;;
46731;SDS011;32477;51.474;5.696;2023-02-19T07:11:09;22.23;;;4.45;;
46731;SDS011;32477;51.474;5.696;2023-02-19T07:13:35;28.52;;;5.47;;
46731;SDS011;32477;51.474;5.696;2023-02-19T07:16:01;17.88;;;4.97;;
46731;SDS011;32477;51.474;5.696;2023-02-19T07:18:29;25.17;;;5.47;;
46731;SDS011;32477;51.474;5.696;2023-02-19T07:21:00;21.10;;;5.80;;
46731;SDS011;32477;51.474;5.696;2023-02-19T07:23:27;15.77;;;5.30;;
46731;SDS011;32477;51.474;5.696;2023-02-19T07:25:53;31.50;;;6.13;;
46731;SDS011;32477;51.474;5.696;2023-02-19T07:28:18;26.27;;;6.13;;
46731;SDS011;32477;51.474;5.696;2023-02-19T07:30:44;18.63;;;6.35;;
46731;SDS011;32477;51.474;5.696;2023-02-19T07:33:12;18.95;;;6.82;;
46731;SDS011;32477;51.474;5.696;2023-02-19T07:35:44;24.20;;;6.78;;
46731;SDS011;32477;51.474;5.696;2023-02-19T07:38:15;22.42;;;9.23;;
46731;SDS011;32477;51.474;5.696;2023-02-19T07:43:17;29.65;;;8.65;;
46731;SDS011;32477;51.474;5.696;2023-02-19T07:45:43;33.15;;;9.35;;
46731;SDS011;32477;51.474;5.696;2023-02-19T07:48:09;22.45;;;9.82;;
46731;SDS011;32477;51.474;5.696;2023-02-19T07:50:34;25.65;;;7.80;;
46731;SDS011;32477;51.474;5.696;2023-02-19T07:53:00;25.63;;;10.00;;
46731;SDS011;32477;51.474;5.696;2023-02-19T07:55:26;22.38;;;8.23;;
46731;SDS011;32477;51.474;5.696;2023-02-19T07:57:51;21.67;;;7.18;;
46731;SDS011;32477;51.474;5.696;2023-02-19T08:00:17;26.90;;;7.90;;
46731;SDS011;32477;51.474;5.696;2023-02-19T08:02:49;19.33;;;8.70;;
46731;SDS011;32477;51.474;5.696;2023-02-19T08:05:31;34.78;;;8.98;;
46731;SDS011;32477;51.474;5.696;2023-02-19T08:07:58;19.40;;;8.45;;
46731;SDS011;32477;51.474;5.696;2023-02-19T08:10:25;27.92;;;7.70;;
46731;SDS011;32477;51.474;5.696;2023-02-19T08:13:10;21.20;;;7.82;;
46731;SDS011;32477;51.474;5.696;2023-02-19T08:15:43;22.63;;;8.20;;
46731;SDS011;32477;51.474;5.696;2023-02-19T08:18:09;20.95;;;7.60;;
46731;SDS011;32477;51.474;5.696;2023-02-19T08:20:35;25.27;;;8.07;;
46731;SDS011;32477;51.474;5.696;2023-02-19T08:23:01;28.25;;;8.27;;
46731;SDS011;32477;51.474;5.696;2023-02-19T08:25:27;17.75;;;7.25;;
46731;SDS011;32477;51.474;5.696;2023-02-19T08:27:53;23.63;;;9.32;;
46731;SDS011;32477;51.474;5.696;2023-02-19T08:30:19;31.52;;;9.25;;
46731;SDS011;32477;51.474;5.696;2023-02-19T08:32:45;15.25;;;7.38;;
46731;SDS011;32477;51.474;5.696;2023-02-19T08:35:10;20.67;;;8.43;;
46731;SDS011;32477;51.474;5.696;2023-02-19T08:37:36;16.13;;;8.20;;
46731;SDS011;32477;51.474;5.696;2023-02-19T08:40:02;22.77;;;9.88;;
46731;SDS011;32477;51.474;5.696;2023-02-19T08:42:28;15.77;;;8.25;;
46731;SDS011;32477;51.474;5.696;2023-02-19T08:44:53;22.90;;;9.13;;
46731;SDS011;32477;51.474;5.696;2023-02-19T08:47:19;28.25;;;10.18;;
46731;SDS011;32477;51.474;5.696;2023-02-19T08:49:45;19.67;;;8.65;;
46731;SDS011;32477;51.474;5.696;2023-02-19T08:52:10;25.30;;;10.20;;
46731;SDS011;32477;51.474;5.696;2023-02-19T08:54:36;22.45;;;9.77;;
46731;SDS011;32477;51.474;5.696;2023-02-19T08:57:02;25.75;;;9.65;;
46731;SDS011;32477;51.474;5.696;2023-02-19T08:59:29;24.10;;;9.43;;
46731;SDS011;32477;51.474;5.696;2023-02-19T09:01:57;22.85;;;8.95;;
46731;SDS011;32477;51.474;5.696;2023-02-19T09:04:23;24.33;;;8.43;;
46731;SDS011;32477;51.474;5.696;2023-02-19T09:06:49;24.05;;;8.93;;
46731;SDS011;32477;51.474;5.696;2023-02-19T09:09:14;22.55;;;9.15;;
46731;SDS011;32477;51.474;5.696;2023-02-19T09:11:40;21.95;;;9.73;;
46731;SDS011;32477;51.474;5.696;2023-02-19T09:14:06;22.55;;;9.40;;
46731;SDS011;32477;51.474;5.696;2023-02-19T09:16:32;19.50;;;9.57;;
46731;SDS011;32477;51.474;5.696;2023-02-19T09:18:59;21.25;;;8.77;;
46731;SDS011;32477;51.474;5.696;2023-02-19T09:21:24;24.30;;;10.02;;
46731;SDS011;32477;51.474;5.696;2023-02-19T09:23:53;22.23;;;8.43;;
46731;SDS011;32477;51.474;5.696;2023-02-19T09:26:18;14.95;;;7.75;;
46731;SDS011;32477;51.474;5.696;2023-02-19T09:28:44;24.45;;;8.38;;
46731;SDS011;32477;51.474;5.696;2023-02-19T09:31:11;12.23;;;6.35;;
46731;SDS011;32477;51.474;5.696;2023-02-19T09:33:43;17.23;;;6.57;;
46731;SDS011;32477;51.474;5.696;2023-02-19T09:36:09;18.10;;;7.32;;
46731;SDS011;32477;51.474;5.696;2023-02-19T09:38:35;14.30;;;8.07;;
46731;SDS011;32477;51.474;5.696;2023-02-19T09:41:24;17.17;;;7.32;;
46731;SDS011;32477;51.474;5.696;2023-02-19T09:43:54;23.00;;;8.32;;
46731;SDS011;32477;51.474;5.696;2023-02-19T09:46:32;17.92;;;8.52;;
46731;SDS011;32477;51.474;5.696;2023-02-19T09:49:06;17.25;;;9.77;;
46731;SDS011;32477;51.474;5.696;2023-02-19T09:51:39;22.55;;;9.85;;
46731;SDS011;32477;51.474;5.696;2023-02-19T09:54:09;24.23;;;11.55;;
46731;SDS011;32477;51.474;5.696;2023-02-19T09:56:50;16.55;;;9.63;;
46731;SDS011;32477;51.474;5.696;2023-02-19T09:59:20;18.58;;;9.70;;
46731;SDS011;32477;51.474;5.696;2023-02-19T10:01:51;22.67;;;10.02;;
46731;SDS011;32477;51.474;5.696;2023-02-19T10:06:48;20.02;;;7.78;;
46731;SDS011;32477;51.474;5.696;2023-02-19T10:09:22;20.50;;;7.97;;
46731;SDS011;32477;51.474;5.696;2023-02-19T10:11:51;14.93;;;7.15;;
46731;SDS011;32477;51.474;5.696;2023-02-19T10:14:22;18.45;;;6.80;;
46731;SDS011;32477;51.474;5.696;2023-02-19T10:16:58;20.08;;;7.13;;
46731;SDS011;32477;51.474;5.696;2023-02-19T10:19:27;13.13;;;6.57;;
46731;SDS011;32477;51.474;5.696;2023-02-19T10:21:53;18.02;;;5.85;;
46731;SDS011;32477;51.474;5.696;2023-02-19T10:24:22;11.95;;;5.40;;
46731;SDS011;32477;51.474;5.696;2023-02-19T10:26:52;18.83;;;6.20;;
46731;SDS011;32477;51.474;5.696;2023-02-19T10:29:19;10.60;;;5.28;;
46731;SDS011;32477;51.474;5.696;2023-02-19T10:31:46;13.00;;;5.28;;
46731;SDS011;32477;51.474;5.696;2023-02-19T10:34:18;9.10;;;4.60;;
46731;SDS011;32477;51.474;5.696;2023-02-19T10:36:48;15.30;;;6.35;;
46731;SDS011;32477;51.474;5.696;2023-02-19T10:41:47;10.85;;;5.65;;
46731;SDS011;32477;51.474;5.696;2023-02-19T10:44:17;12.30;;;5.43;;
46731;SDS011;32477;51.474;5.696;2023-02-19T10:46:52;11.13;;;5.05;;
46731;SDS011;32477;51.474;5.696;2023-02-19T10:49:22;11.85;;;5.50;;
46731;SDS011;32477;51.474;5.696;2023-02-19T10:51:54;12.30;;;6.13;;
46731;SDS011;32477;51.474;5.696;2023-02-19T10:54:27;10.25;;;5.80;;
46731;SDS011;32477;51.474;5.696;2023-02-19T10:57:40;12.25;;;6.28;;
46731;SDS011;32477;51.474;5.696;2023-02-19T11:02:22;14.05;;;5.85;;
46731;SDS011;32477;51.474;5.696;2023-02-19T11:05:00;9.60;;;4.72;;
46731;SDS011;32477;51.474;5.696;2023-02-19T11:07:30;11.30;;;5.20;;
46731;SDS011;32477;51.474;5.696;2023-02-19T11:09:56;19.58;;;5.40;;
46731;SDS011;32477;51.474;5.696;2023-02-19T11:12:24;13.00;;;6.18;;
46731;SDS011;32477;51.474;5.696;2023-02-19T11:14:52;15.43;;;5.88;;
46731;SDS011;32477;51.474;5.696;2023-02-19T11:17:27;14.20;;;6.78;;
46731;SDS011;32477;51.474;5.696;2023-02-19T11:19:55;13.55;;;6.35;;
46731;SDS011;32477;51.474;5.696;2023-02-19T11:22:30;12.32;;;6.82;;
46731;SDS011;32477;51.474;5.696;2023-02-19T11:25:01;16.30;;;6.68;;
46731;SDS011;32477;51.474;5.696;2023-02-19T11:27:34;16.02;;;7.65;;
46731;SDS011;32477;51.474;5.696;2023-02-19T11:32:54;23.02;;;9.88;;
46731;SDS011;32477;51.474;5.696;2023-02-19T11:35:20;20.15;;;10.27;;
46731;SDS011;32477;51.474;5.696;2023-02-19T11:37:52;19.95;;;11.10;;
46731;SDS011;32477;51.474;5.696;2023-02-19T11:40:21;21.20;;;11.32;;
46731;SDS011;32477;51.474;5.696;2023-02-19T11:48:52;19.35;;;11.15;;
46731;SDS011;32477;51.474;5.696;2023-02-19T11:57:04;18.63;;;10.82;;
46731;SDS011;32477;51.474;5.696;2023-02-19T11:59:54;15.95;;;10.48;;
46731;SDS011;32477;51.474;5.696;2023-02-19T12:05:42;12.63;;;6.93;;
46731;SDS011;32477;51.474;5.696;2023-02-19T12:08:38;11.20;;;5.72;;
46731;SDS011;32477;51.474;5.696;2023-02-19T12:13:56;8.13;;;5.30;;
46731;SDS011;32477;51.474;5.696;2023-02-19T12:16:46;10.48;;;4.18;;
46731;SDS011;32477;51.474;5.696;2023-02-19T12:33:33;6.15;;;2.95;;
46731;SDS011;32477;51.474;5.696;2023-02-19T12:36:14;8.80;;;3.17;;
46731;SDS011;32477;51.474;5.696;2023-02-19T12:41:54;4.63;;;2.63;;
46731;SDS011;32477;51.474;5.696;2023-02-19T12:47:02;5.68;;;2.30;;
46731;SDS011;32477;51.474;5.696;2023-02-19T12:52:00;4.25;;;1.70;;
46731;SDS011;32477;51.474;5.696;2023-02-19T12:54:43;4.80;;;1.77;;
46731;SDS011;32477;51.474;5.696;2023-02-19T12:57:22;2.75;;;1.63;;
46731;SDS011;32477;51.474;5.696;2023-02-19T12:59:52;4.43;;;1.83;;
46731;SDS011;32477;51.474;5.696;2023-02-19T13:02:21;2.42;;;1.50;;
46731;SDS011;32477;51.474;5.696;2023-02-19T13:05:12;13.15;;;4.68;;
46731;SDS011;32477;51.474;5.696;2023-02-19T13:07:58;6.18;;;1.80;;
46731;SDS011;32477;51.474;5.696;2023-02-19T13:10:49;5.25;;;2.40;;
46731;SDS011;32477;51.474;5.696;2023-02-19T13:16:02;5.70;;;1.55;;
46731;SDS011;32477;51.474;5.696;2023-02-19T13:19:15;4.85;;;1.60;;
46731;SDS011;32477;51.474;5.696;2023-02-19T13:21:24;3.13;;;1.60;;
46731;SDS011;32477;51.474;5.696;2023-02-19T13:24:21;3.85;;;1.70;;
46731;SDS011;32477;51.474;5.696;2023-02-19T13:26:56;2.13;;;1.48;;
46731;SDS011;32477;51.474;5.696;2023-02-19T13:32:29;7.10;;;1.83;;
46731;SDS011;32477;51.474;5.696;2023-02-19T13:35:24;5.10;;;1.75;;
46731;SDS011;32477;51.474;5.696;2023-02-19T13:37:59;4.78;;;1.92;;
46731;SDS011;32477;51.474;5.696;2023-02-19T13:42:57;6.00;;;2.53;;
46731;SDS011;32477;51.474;5.696;2023-02-19T13:48:23;6.57;;;2.17;;
46731;SDS011;32477;51.474;5.696;2023-02-19T13:53:48;7.53;;;1.90;;
46731;SDS011;32477;51.474;5.696;2023-02-19T14:04:23;9.73;;;2.10;;
46731;SDS011;32477;51.474;5.696;2023-02-19T14:14:53;3.72;;;2.00;;
46731;SDS011;32477;51.474;5.696;2023-02-19T14:20:00;3.35;;;1.20;;
46731;SDS011;32477;51.474;5.696;2023-02-19T14:25:28;4.32;;;1.40;;
46731;SDS011;32477;51.474;5.696;2023-02-19T14:36:01;4.45;;;1.05;;
46731;SDS011;32477;51.474;5.696;2023-02-19T14:38:47;2.58;;;1.13;;
46731;SDS011;32477;51.474;5.696;2023-02-19T14:41:17;6.97;;;1.27;;
46731;SDS011;32477;51.474;5.696;2023-02-19T14:43:44;2.08;;;1.20;;
46731;SDS011;32477;51.474;5.696;2023-02-19T14:49:03;7.60;;;1.50;;
46731;SDS011;32477;51.474;5.696;2023-02-19T14:51:42;3.60;;;1.30;;
46731;SDS011;32477;51.474;5.696;2023-02-19T14:54:12;9.50;;;1.42;;
46731;SDS011;32477;51.474;5.696;2023-02-19T14:56:46;4.93;;;1.87;;
46731;SDS011;32477;51.474;5.696;2023-02-19T15:01:44;5.95;;;2.30;;
46731;SDS011;32477;51.474;5.696;2023-02-19T15:04:24;6.18;;;2.90;;
46731;SDS011;32477;51.474;5.696;2023-02-19T15:06:58;11.73;;;3.58;;
46731;SDS011;32477;51.474;5.696;2023-02-19T15:09:38;7.15;;;3.33;;
46731;SDS011;32477;51.474;5.696;2023-02-19T15:12:13;11.32;;;3.78;;
46731;SDS011;32477;51.474;5.696;2023-02-19T15:14:44;7.75;;;3.47;;
46731;SDS011;32477;51.474;5.696;2023-02-19T15:17:14;8.50;;;3.63;;
46731;SDS011;32477;51.474;5.696;2023-02-19T15:19:52;6.38;;;3.05;;
46731;SDS011;32477;51.474;5.696;2023-02-19T15:22:20;9.77;;;2.67;;
46731;SDS011;32477;51.474;5.696;2023-02-19T15:24:48;8.30;;;3.15;;
46731;SDS011;32477;51.474;5.696;2023-02-19T15:27:19;6.55;;;3.28;;
46731;SDS011;32477;51.474;5.696;2023-02-19T15:29:48;9.38;;;3.58;;
46731;SDS011;32477;51.474;5.696;2023-02-19T15:32:16;8.30;;;3.20;;
46731;SDS011;32477;51.474;5.696;2023-02-19T15:34:54;8.00;;;3.10;;
46731;SDS011;32477;51.474;5.696;2023-02-19T15:39:47;8.00;;;3.35;;
46731;SDS011;32477;51.474;5.696;2023-02-19T15:42:23;5.88;;;3.42;;
46731;SDS011;32477;51.474;5.696;2023-02-19T15:45:03;6.20;;;3.75;;
46731;SDS011;32477;51.474;5.696;2023-02-19T15:47:44;8.05;;;4.30;;
46731;SDS011;32477;51.474;5.696;2023-02-19T15:50:21;5.47;;;3.53;;
46731;SDS011;32477;51.474;5.696;2023-02-19T15:52:55;6.15;;;3.35;;
46731;SDS011;32477;51.474;5.696;2023-02-19T15:55:33;4.57;;;3.45;;
46731;SDS011;32477;51.474;5.696;2023-02-19T15:58:27;10.23;;;3.53;;
46731;SDS011;32477;51.474;5.696;2023-02-19T16:03:42;4.18;;;3.03;;
46731;SDS011;32477;51.474;5.696;2023-02-19T16:06:10;6.50;;;3.25;;
46731;SDS011;32477;51.474;5.696;2023-02-19T16:08:41;4.80;;;3.08;;
46731;SDS011;32477;51.474;5.696;2023-02-19T16:11:24;5.50;;;3.20;;
46731;SDS011;32477;51.474;5.696;2023-02-19T16:19:55;3.97;;;2.40;;
46731;SDS011;32477;51.474;5.696;2023-02-19T16:22:23;4.38;;;1.60;;
46731;SDS011;32477;51.474;5.696;2023-02-19T16:24:54;3.63;;;2.00;;
46731;SDS011;32477;51.474;5.696;2023-02-19T16:27:35;3.97;;;1.80;;
46731;SDS011;32477;51.474;5.696;2023-02-19T16:30:36;6.22;;;1.60;;
46731;SDS011;32477;51.474;5.696;2023-02-19T16:36:14;4.45;;;2.08;;
46731;SDS011;32477;51.474;5.696;2023-02-19T16:39:11;2.72;;;1.30;;
46731;SDS011;32477;51.474;5.696;2023-02-19T16:46:50;3.33;;;2.00;;
46731;SDS011;32477;51.474;5.696;2023-02-19T16:49:18;3.50;;;1.70;;
46731;SDS011;32477;51.474;5.696;2023-02-19T16:51:45;5.40;;;1.73;;
46731;SDS011;32477;51.474;5.696;2023-02-19T16:54:12;3.50;;;1.40;;
46731;SDS011;32477;51.474;5.696;2023-02-19T16:56:38;3.38;;;1.75;;
46731;SDS011;32477;51.474;5.696;2023-02-19T16:59:04;2.42;;;1.40;;
46731;SDS011;32477;51.474;5.696;2023-02-19T17:01:31;3.55;;;1.58;;
46731;SDS011;32477;51.474;5.696;2023-02-19T17:03:58;6.10;;;1.60;;
46731;SDS011;32477;51.474;5.696;2023-02-19T17:06:28;3.78;;;2.25;;
46731;SDS011;32477;51.474;5.696;2023-02-19T17:08:54;5.20;;;1.90;;
46731;SDS011;32477;51.474;5.696;2023-02-19T17:11:19;2.80;;;1.70;;
46731;SDS011;32477;51.474;5.696;2023-02-19T17:13:45;5.65;;;1.50;;
46731;SDS011;32477;51.474;5.696;2023-02-19T17:16:21;2.20;;;1.40;;
46731;SDS011;32477;51.474;5.696;2023-02-19T17:18:49;3.30;;;1.80;;
46731;SDS011;32477;51.474;5.696;2023-02-19T17:21:15;4.40;;;1.95;;
46731;SDS011;32477;51.474;5.696;2023-02-19T17:23:45;4.97;;;1.95;;